Time;durP1;ratioP1;P1;durP2;ratioP2;P2;SDS_P1;SDS_P2;PMS_P1;PMS_P2;Temp;Humidity;BMP_temperature;BMP_pressure;BME280_temperature;BME280_humidity;BME280_pressure;Samples;Min_cycle;Max_cycle;Signal;HPM_P1;HPM_P2
2021/06/15 00:00:06;;;;;;;4.93;2.97;;;;;;;;;;5051229;28;20029;-64
2021/06/15 00:02:32;;;;;;;3.85;2.95;;;;;;;;;;5049655;28;20040;-65
2021/06/15 00:04:58;;;;;;;4.43;2.75;;;;;;;;;;5047563;28;20037;-65
2021/06/15 00:07:23;;;;;;;4.35;2.80;;;;;;;;;;5051413;28;21268;-65
2021/06/15 00:09:49;;;;;;;3.70;2.92;;;;;;;;;;5050113;28;20033;-64
2021/06/15 00:12:14;;;;;;;4.15;2.85;;;;;;;;;;5066273;28;20044;-65
2021/06/15 00:14:40;;;;;;;4.43;2.88;;;;;;;;;;5024888;28;20474;-65
2021/06/15 00:17:05;;;;;;;3.92;2.65;;;;;;;;;;5031320;28;20037;-65
2021/06/15 00:19:31;;;;;;;3.92;2.60;;;;;;;;;;5050298;28;20040;-64
2021/06/15 00:21:57;;;;;;;4.53;2.60;;;;;;;;;;5050427;28;20044;-65
2021/06/15 00:24:22;;;;;;;4.03;2.63;;;;;;;;;;5051183;28;20032;-65
2021/06/15 00:26:48;;;;;;;4.35;2.50;;;;;;;;;;5033793;28;20035;-65
2021/06/15 00:29:13;;;;;;;4.88;2.90;;;;;;;;;;5050980;28;20482;-64
2021/06/15 00:31:38;;;;;;;3.65;2.70;;;;;;;;;;5048456;28;20037;-64
2021/06/15 00:34:04;;;;;;;5.25;3.08;;;;;;;;;;5050481;28;20038;-64
2021/06/15 00:36:29;;;;;;;5.18;3.00;;;;;;;;;;5050122;28;20697;-64
2021/06/15 00:38:55;;;;;;;4.15;2.70;;;;;;;;;;5050127;28;20037;-64
2021/06/15 00:41:20;;;;;;;4.93;2.90;;;;;;;;;;5031863;28;20037;-64
2021/06/15 00:43:46;;;;;;;5.15;2.70;;;;;;;;;;5052125;28;22556;-64
2021/06/15 00:46:11;;;;;;;3.92;2.70;;;;;;;;;;5052133;28;20390;-64
2021/06/15 00:48:37;;;;;;;3.95;2.83;;;;;;;;;;5048543;28;20030;-64
2021/06/15 00:51:06;;;;;;;3.55;2.78;;;;;;;;;;5064824;28;20038;-64
2021/06/15 00:53:32;;;;;;;4.28;2.40;;;;;;;;;;5051474;28;20037;-64
2021/06/15 00:55:58;;;;;;;3.67;2.55;;;;;;;;;;5024160;28;20037;-64
2021/06/15 00:58:24;;;;;;;4.95;3.00;;;;;;;;;;5051112;28;20025;-64
2021/06/15 01:00:50;;;;;;;4.95;3.08;;;;;;;;;;5049923;28;20026;-64
2021/06/15 01:03:16;;;;;;;5.10;3.13;;;;;;;;;;5064471;28;20033;-64
2021/06/15 01:05:41;;;;;;;4.72;3.30;;;;;;;;;;5031264;28;20482;-65
2021/06/15 01:08:40;;;;;;;3.85;2.75;;;;;;;;;;5065295;28;20038;-64
2021/06/15 01:11:21;;;;;;;4.40;3.03;;;;;;;;;;5065486;28;20411;-64
2021/06/15 01:14:10;;;;;;;5.07;3.13;;;;;;;;;;5052462;28;20112;-64
2021/06/15 01:16:38;;;;;;;4.07;2.70;;;;;;;;;;5049784;28;20143;-64
2021/06/15 01:19:09;;;;;;;5.75;3.10;;;;;;;;;;5031615;28;20024;-65
2021/06/15 01:21:35;;;;;;;4.32;2.70;;;;;;;;;;5033438;28;20034;-64
2021/06/15 01:24:04;;;;;;;4.95;2.97;;;;;;;;;;5052917;28;20037;-64
2021/06/15 01:26:48;;;;;;;5.47;3.33;;;;;;;;;;5055675;28;20966;-64
2021/06/15 01:29:17;;;;;;;6.70;3.88;;;;;;;;;;5052051;28;20073;-64
2021/06/15 01:31:53;;;;;;;5.50;3.40;;;;;;;;;;5052042;28;20105;-64
2021/06/15 01:34:25;;;;;;;4.47;2.92;;;;;;;;;;5022363;28;20497;-64
2021/06/15 01:37:12;;;;;;;4.90;3.05;;;;;;;;;;5024383;28;20747;-64
2021/06/15 01:40:02;;;;;;;4.75;3.25;;;;;;;;;;5068752;28;20069;-64
2021/06/15 01:42:54;;;;;;;4.20;3.05;;;;;;;;;;5053750;28;20041;-64
2021/06/15 01:45:23;;;;;;;4.40;3.10;;;;;;;;;;5050994;28;20080;-64
2021/06/15 01:48:05;;;;;;;4.75;3.42;;;;;;;;;;5061563;28;20566;-64
2021/06/15 01:50:37;;;;;;;4.60;3.38;;;;;;;;;;5068222;28;20040;-64
2021/06/15 01:53:08;;;;;;;5.03;3.20;;;;;;;;;;5029095;28;20033;-64
2021/06/15 01:55:35;;;;;;;4.35;3.33;;;;;;;;;;5027602;28;20505;-64
2021/06/15 01:58:01;;;;;;;5.07;3.25;;;;;;;;;;5033239;28;20048;-65
2021/06/15 02:00:27;;;;;;;5.57;3.30;;;;;;;;;;5043574;28;20552;-64
2021/06/15 02:02:57;;;;;;;4.97;3.25;;;;;;;;;;5018633;28;20057;-64
2021/06/15 02:05:48;;;;;;;4.60;3.50;;;;;;;;;;5038782;28;20057;-64
2021/06/15 02:08:18;;;;;;;5.15;3.10;;;;;;;;;;5012388;28;20519;-65
2021/06/15 02:10:44;;;;;;;5.95;3.67;;;;;;;;;;5068422;28;20041;-64
2021/06/15 02:13:30;;;;;;;6.18;3.25;;;;;;;;;;5047467;28;20500;-65
2021/06/15 02:16:10;;;;;;;5.20;3.42;;;;;;;;;;5020332;28;20465;-64
2021/06/15 02:18:56;;;;;;;5.72;3.30;;;;;;;;;;5036398;28;20579;-64
2021/06/15 02:21:31;;;;;;;4.80;3.17;;;;;;;;;;5035399;28;20062;-64
2021/06/15 02:23:59;;;;;;;4.95;3.47;;;;;;;;;;5018872;28;20041;-64
2021/06/15 02:26:26;;;;;;;4.38;3.10;;;;;;;;;;5044068;28;20042;-64
2021/06/15 02:28:52;;;;;;;4.82;3.53;;;;;;;;;;5049179;28;20029;-64
2021/06/15 02:31:27;;;;;;;5.60;3.63;;;;;;;;;;5066711;28;20492;-65
2021/06/15 02:34:03;;;;;;;6.03;3.70;;;;;;;;;;5022467;28;20509;-64
2021/06/15 02:36:31;;;;;;;6.80;3.75;;;;;;;;;;5034113;28;20025;-64
2021/06/15 02:39:00;;;;;;;4.80;3.42;;;;;;;;;;5033662;28;20124;-64
2021/06/15 02:41:26;;;;;;;5.25;3.30;;;;;;;;;;5021525;28;20033;-64
2021/06/15 02:43:57;;;;;;;4.95;3.60;;;;;;;;;;5055427;28;20041;-65
2021/06/15 02:46:23;;;;;;;4.80;3.40;;;;;;;;;;5034951;28;20065;-64
2021/06/15 02:48:52;;;;;;;5.80;3.70;;;;;;;;;;5003975;28;20025;-64
2021/06/15 02:51:17;;;;;;;4.18;3.28;;;;;;;;;;5043511;28;20112;-64
2021/06/15 02:53:50;;;;;;;4.93;3.80;;;;;;;;;;5036195;28;20029;-64
2021/06/15 02:56:17;;;;;;;4.78;3.42;;;;;;;;;;5016033;28;20034;-64
2021/06/15 02:58:46;;;;;;;3.67;3.00;;;;;;;;;;5054290;28;20972;-64
2021/06/15 03:01:11;;;;;;;5.07;3.83;;;;;;;;;;5033693;28;20030;-64
2021/06/15 03:03:46;;;;;;;6.07;4.13;;;;;;;;;;5034016;28;20041;-64
2021/06/15 03:06:11;;;;;;;5.10;3.50;;;;;;;;;;5026171;28;20045;-64
2021/06/15 03:08:38;;;;;;;4.65;3.33;;;;;;;;;;5050174;28;20501;-64
2021/06/15 03:11:04;;;;;;;6.20;3.55;;;;;;;;;;5010624;28;20275;-64
2021/06/15 03:13:46;;;;;;;5.45;3.88;;;;;;;;;;5067277;28;20040;-64
2021/06/15 03:16:15;;;;;;;6.07;3.72;;;;;;;;;;5035630;28;20186;-64
2021/06/15 03:18:57;;;;;;;6.55;3.63;;;;;;;;;;5019460;28;20033;-64
2021/06/15 03:21:23;;;;;;;5.82;3.67;;;;;;;;;;5035323;28;20156;-64
2021/06/15 03:24:03;;;;;;;5.35;3.70;;;;;;;;;;5051654;28;20044;-66
2021/06/15 03:26:38;;;;;;;5.65;3.50;;;;;;;;;;5048464;28;21082;-64
2021/06/15 03:29:07;;;;;;;6.07;3.70;;;;;;;;;;5019451;28;20029;-64
2021/06/15 03:31:36;;;;;;;5.53;3.80;;;;;;;;;;5038634;28;20057;-64
2021/06/15 03:34:02;;;;;;;6.55;4.07;;;;;;;;;;5016164;28;20110;-64
2021/06/15 03:36:28;;;;;;;6.30;4.10;;;;;;;;;;5047890;28;20099;-64
2021/06/15 03:38:57;;;;;;;5.47;3.58;;;;;;;;;;5032177;28;20083;-64
2021/06/15 03:41:23;;;;;;;5.95;4.20;;;;;;;;;;5047592;28;20088;-64
2021/06/15 03:43:59;;;;;;;4.80;3.35;;;;;;;;;;5031700;28;20072;-64
2021/06/15 03:46:24;;;;;;;5.65;3.63;;;;;;;;;;5032052;28;20152;-64
2021/06/15 03:48:50;;;;;;;5.55;3.70;;;;;;;;;;5019690;28;20390;-64
2021/06/15 03:51:47;;;;;;;6.40;3.67;;;;;;;;;;5030417;28;20524;-65
2021/06/15 03:54:12;;;;;;;4.35;3.55;;;;;;;;;;5017752;28;20049;-63
2021/06/15 03:56:45;;;;;;;6.57;4.65;;;;;;;;;;5049083;28;20033;-63
2021/06/15 03:59:12;;;;;;;6.57;4.40;;;;;;;;;;5032114;28;20041;-63
2021/06/15 04:01:41;;;;;;;7.38;4.53;;;;;;;;;;5031969;28;20044;-63
2021/06/15 04:04:12;;;;;;;7.35;4.43;;;;;;;;;;5032542;28;20099;-63
2021/06/15 04:06:40;;;;;;;7.63;5.28;;;;;;;;;;5035026;28;20045;-63
2021/06/15 04:09:06;;;;;;;5.93;4.60;;;;;;;;;;5031178;28;20475;-63
2021/06/15 04:11:33;;;;;;;6.60;4.32;;;;;;;;;;5050783;28;20038;-63
2021/06/15 04:13:59;;;;;;;6.78;4.70;;;;;;;;;;5032852;28;20034;-63
2021/06/15 04:16:24;;;;;;;8.88;5.18;;;;;;;;;;5024922;28;20022;-63
2021/06/15 04:18:50;;;;;;;8.23;5.22;;;;;;;;;;5046669;28;20493;-63
2021/06/15 04:21:17;;;;;;;7.05;5.20;;;;;;;;;;5029351;28;20038;-63
2021/06/15 04:24:11;;;;;;;8.05;5.28;;;;;;;;;;5031325;28;20051;-63
2021/06/15 04:26:37;;;;;;;7.85;5.38;;;;;;;;;;5055588;28;20530;-63
2021/06/15 04:29:05;;;;;;;7.30;5.05;;;;;;;;;;5030529;28;20033;-63
2021/06/15 04:31:31;;;;;;;8.40;4.90;;;;;;;;;;5031618;28;20552;-63
2021/06/15 04:33:58;;;;;;;8.15;5.22;;;;;;;;;;5017978;28;20040;-63
2021/06/15 04:36:24;;;;;;;7.45;5.07;;;;;;;;;;5016385;28;20435;-63
2021/06/15 04:38:59;;;;;;;7.75;5.10;;;;;;;;;;5066514;28;20692;-63
2021/06/15 04:41:35;;;;;;;7.45;5.00;;;;;;;;;;5058339;28;20045;-62
2021/06/15 04:44:02;;;;;;;7.43;5.40;;;;;;;;;;5035317;28;20052;-63
2021/06/15 04:46:38;;;;;;;8.32;5.25;;;;;;;;;;5013875;28;20041;-63
2021/06/15 04:49:13;;;;;;;8.90;5.80;;;;;;;;;;5032666;28;20580;-63
2021/06/15 04:51:38;;;;;;;8.15;5.43;;;;;;;;;;5034047;28;20037;-63
2021/06/15 04:54:04;;;;;;;8.63;6.05;;;;;;;;;;5014867;28;20029;-63
2021/06/15 04:56:30;;;;;;;8.10;5.55;;;;;;;;;;5017970;28;20036;-63
2021/06/15 04:58:57;;;;;;;7.07;4.47;;;;;;;;;;5054661;28;20029;-63
2021/06/15 05:01:22;;;;;;;8.18;6.15;;;;;;;;;;5033968;28;20033;-62
2021/06/15 05:03:48;;;;;;;8.55;6.55;;;;;;;;;;5018535;28;20037;-63
2021/06/15 05:06:13;;;;;;;9.30;6.50;;;;;;;;;;5053298;28;20500;-63
2021/06/15 05:08:53;;;;;;;10.15;6.63;;;;;;;;;;5036347;28;20029;-63
2021/06/15 05:11:19;;;;;;;8.98;6.30;;;;;;;;;;5037832;28;20072;-63
2021/06/15 05:13:44;;;;;;;10.02;6.75;;;;;;;;;;5034636;28;20087;-63
2021/06/15 05:16:10;;;;;;;6.90;5.03;;;;;;;;;;5034477;28;20029;-63
2021/06/15 05:18:37;;;;;;;6.00;4.75;;;;;;;;;;5018958;28;20410;-63
2021/06/15 05:21:11;;;;;;;7.90;5.78;;;;;;;;;;5054370;28;20048;-63
2021/06/15 05:23:51;;;;;;;6.28;4.45;;;;;;;;;;5034882;28;20120;-63
2021/06/15 05:26:16;;;;;;;8.48;5.50;;;;;;;;;;5034593;28;20033;-63
2021/06/15 05:28:42;;;;;;;8.27;5.95;;;;;;;;;;5053093;28;20040;-63
2021/06/15 05:31:07;;;;;;;6.15;4.75;;;;;;;;;;5053770;28;20042;-63
2021/06/15 05:33:33;;;;;;;6.85;5.20;;;;;;;;;;5052626;28;20041;-63
2021/06/15 05:35:58;;;;;;;5.97;4.20;;;;;;;;;;5034867;28;20029;-63
2021/06/15 05:38:24;;;;;;;7.00;5.03;;;;;;;;;;5050135;28;20033;-63
2021/06/15 05:40:49;;;;;;;11.60;5.93;;;;;;;;;;5053558;28;20055;-63
2021/06/15 05:43:16;;;;;;;8.85;6.28;;;;;;;;;;5034983;28;20036;-63
2021/06/15 05:45:41;;;;;;;9.15;5.95;;;;;;;;;;5053948;28;20044;-63
2021/06/15 05:48:07;;;;;;;7.05;5.50;;;;;;;;;;5051979;28;20593;-63
2021/06/15 05:50:33;;;;;;;7.32;5.45;;;;;;;;;;5034450;28;20102;-63
2021/06/15 05:52:58;;;;;;;7.63;5.03;;;;;;;;;;5050356;28;20802;-63
2021/06/15 05:55:26;;;;;;;7.93;5.68;;;;;;;;;;5033891;28;20040;-63
2021/06/15 05:57:52;;;;;;;8.05;5.43;;;;;;;;;;5033343;28;20513;-63
2021/06/15 06:00:18;;;;;;;7.45;5.60;;;;;;;;;;5052621;28;20091;-63
2021/06/15 06:02:43;;;;;;;6.78;4.25;;;;;;;;;;5052672;28;20207;-64
2021/06/15 06:10:25;;;;;;;7.80;5.65;;;;;;;;;;5037532;28;20127;-63
2021/06/15 06:12:51;;;;;;;7.57;5.15;;;;;;;;;;5052399;28;20092;-63
2021/06/15 06:15:16;;;;;;;8.70;6.18;;;;;;;;;;5034458;28;20033;-63
2021/06/15 06:17:42;;;;;;;5.43;3.28;;;;;;;;;;5032638;28;20891;-63
2021/06/15 06:20:08;;;;;;;6.53;4.82;;;;;;;;;;5032402;28;20057;-63
2021/06/15 06:22:35;;;;;;;6.65;3.75;;;;;;;;;;5018443;28;20136;-63
2021/06/15 06:25:02;;;;;;;7.57;3.97;;;;;;;;;;5050815;28;20041;-63
2021/06/15 06:27:28;;;;;;;7.95;5.30;;;;;;;;;;5016809;28;20040;-63
2021/06/15 06:29:53;;;;;;;8.50;5.55;;;;;;;;;;5051402;28;20018;-63
2021/06/15 06:32:19;;;;;;;8.88;6.20;;;;;;;;;;5050884;28;20674;-63
2021/06/15 06:34:44;;;;;;;4.68;3.08;;;;;;;;;;5052089;28;20042;-63
2021/06/15 06:37:09;;;;;;;8.75;5.90;;;;;;;;;;5051342;28;20087;-63
2021/06/15 06:39:35;;;;;;;9.10;6.28;;;;;;;;;;5050847;28;20504;-63
2021/06/15 06:42:00;;;;;;;8.70;6.05;;;;;;;;;;5049798;28;20038;-63
2021/06/15 06:44:26;;;;;;;8.38;5.63;;;;;;;;;;5052348;28;20837;-63
2021/06/15 06:46:51;;;;;;;8.95;5.78;;;;;;;;;;5050207;28;20048;-63
2021/06/15 06:49:17;;;;;;;9.77;6.25;;;;;;;;;;5053302;28;20371;-63
2021/06/15 06:51:42;;;;;;;7.43;5.47;;;;;;;;;;5037283;28;20029;-63
2021/06/15 06:54:08;;;;;;;7.38;5.35;;;;;;;;;;5053604;28;20643;-63
2021/06/15 06:56:33;;;;;;;8.07;5.53;;;;;;;;;;5053116;28;20046;-63
2021/06/15 06:58:59;;;;;;;7.35;5.28;;;;;;;;;;5050997;28;20041;-63
2021/06/15 07:01:24;;;;;;;6.82;4.60;;;;;;;;;;5051108;28;20267;-63
2021/06/15 07:03:50;;;;;;;7.88;4.72;;;;;;;;;;5049830;28;20041;-63
2021/06/15 07:06:16;;;;;;;6.70;5.22;;;;;;;;;;5051072;28;20113;-63
2021/06/15 07:08:42;;;;;;;7.25;4.93;;;;;;;;;;5050613;28;20474;-63
2021/06/15 07:11:07;;;;;;;7.88;5.20;;;;;;;;;;5051276;28;20044;-62
2021/06/15 07:13:33;;;;;;;7.80;5.30;;;;;;;;;;5052343;28;20466;-62
2021/06/15 07:15:58;;;;;;;7.57;4.97;;;;;;;;;;5015910;28;20402;-63
2021/06/15 07:18:24;;;;;;;7.75;5.18;;;;;;;;;;5049956;28;20037;-63
2021/06/15 07:20:49;;;;;;;7.18;4.70;;;;;;;;;;5035440;28;20507;-64
2021/06/15 07:23:15;;;;;;;8.27;5.00;;;;;;;;;;5049659;28;20115;-63
2021/06/15 07:25:41;;;;;;;7.20;5.05;;;;;;;;;;5049278;28;20041;-63
2021/06/15 07:28:06;;;;;;;5.88;4.65;;;;;;;;;;5025530;28;20452;-62
2021/06/15 07:30:31;;;;;;;6.45;4.13;;;;;;;;;;5069349;28;20037;-63
2021/06/15 07:32:57;;;;;;;6.88;4.40;;;;;;;;;;5052575;28;20049;-62
2021/06/15 07:35:26;;;;;;;7.20;4.50;;;;;;;;;;5052071;28;20033;-63
2021/06/15 07:37:52;;;;;;;5.30;3.65;;;;;;;;;;5049021;28;20620;-63
2021/06/15 07:40:22;;;;;;;6.72;3.92;;;;;;;;;;5050320;28;20035;-63
2021/06/15 07:42:52;;;;;;;6.55;4.47;;;;;;;;;;5019518;28;20040;-63
2021/06/15 07:45:18;;;;;;;6.35;3.97;;;;;;;;;;5058600;28;21005;-63
2021/06/15 07:47:43;;;;;;;4.97;3.80;;;;;;;;;;5066001;28;20038;-62
2021/06/15 07:50:09;;;;;;;6.00;4.07;;;;;;;;;;5048491;28;20484;-63
2021/06/15 07:52:35;;;;;;;7.53;3.80;;;;;;;;;;5050403;28;20480;-63
2021/06/15 07:55:01;;;;;;;6.00;3.70;;;;;;;;;;5049568;28;20080;-63
2021/06/15 07:57:26;;;;;;;5.38;3.40;;;;;;;;;;5050037;28;20033;-63
2021/06/15 07:59:52;;;;;;;5.18;3.33;;;;;;;;;;5035840;28;20033;-63
2021/06/15 08:02:17;;;;;;;4.93;3.55;;;;;;;;;;5048450;28;20041;-63
2021/06/15 08:04:43;;;;;;;6.00;3.38;;;;;;;;;;5050108;28;20053;-63
2021/06/15 08:07:08;;;;;;;7.28;3.20;;;;;;;;;;5065582;28;20905;-63
2021/06/15 08:09:34;;;;;;;5.72;3.55;;;;;;;;;;5051642;28;20084;-63
2021/06/15 08:11:59;;;;;;;6.93;4.07;;;;;;;;;;5049884;28;20086;-63
2021/06/15 08:14:25;;;;;;;6.82;4.30;;;;;;;;;;5048320;28;20767;-63
2021/06/15 08:16:50;;;;;;;6.43;3.67;;;;;;;;;;5049796;28;20034;-63
2021/06/15 08:19:15;;;;;;;5.32;3.58;;;;;;;;;;5025819;28;20566;-63
2021/06/15 08:21:41;;;;;;;4.85;3.42;;;;;;;;;;5031622;28;20034;-63
2021/06/15 08:24:09;;;;;;;5.80;3.60;;;;;;;;;;5049312;28;20516;-63
2021/06/15 08:26:35;;;;;;;6.53;4.07;;;;;;;;;;5049577;28;20037;-62
2021/06/15 08:29:00;;;;;;;6.07;3.90;;;;;;;;;;5050176;28;20025;-63
2021/06/15 08:31:25;;;;;;;5.32;3.50;;;;;;;;;;5031747;28;20378;-63
2021/06/15 08:33:51;;;;;;;5.95;4.03;;;;;;;;;;5065701;28;20038;-63
2021/06/15 08:36:16;;;;;;;6.43;3.80;;;;;;;;;;5050576;28;20026;-63
2021/06/15 08:38:42;;;;;;;5.78;3.75;;;;;;;;;;5050047;28;20413;-63
2021/06/15 08:41:07;;;;;;;7.00;3.95;;;;;;;;;;5032844;28;20041;-63
2021/06/15 08:43:33;;;;;;;6.10;3.83;;;;;;;;;;5050218;28;20180;-63
2021/06/15 08:45:58;;;;;;;5.65;3.45;;;;;;;;;;5015582;28;20460;-63
2021/06/15 08:48:24;;;;;;;4.30;3.30;;;;;;;;;;5029924;28;20034;-63
2021/06/15 08:50:50;;;;;;;4.90;3.38;;;;;;;;;;5048949;28;20099;-63
2021/06/15 08:53:15;;;;;;;4.50;3.13;;;;;;;;;;5047626;28;20038;-63
2021/06/15 08:55:46;;;;;;;4.82;3.20;;;;;;;;;;5035803;28;20060;-63
2021/06/15 08:58:21;;;;;;;4.45;3.10;;;;;;;;;;5032275;28;20199;-63
2021/06/15 09:00:46;;;;;;;5.13;2.88;;;;;;;;;;5049788;28;20588;-63
2021/06/15 09:03:13;;;;;;;3.45;2.60;;;;;;;;;;5050192;28;20187;-63
2021/06/15 09:05:39;;;;;;;4.07;2.97;;;;;;;;;;5050193;28;20079;-63
2021/06/15 09:08:11;;;;;;;4.07;3.22;;;;;;;;;;5030507;28;20425;-63
2021/06/15 09:10:41;;;;;;;6.20;4.03;;;;;;;;;;5049510;28;20961;-62
2021/06/15 09:13:37;;;;;;;4.28;3.53;;;;;;;;;;5040298;28;20616;-63
2021/06/15 09:16:36;;;;;;;4.43;3.30;;;;;;;;;;5015022;28;20184;-63
2021/06/15 09:19:13;;;;;;;5.65;3.58;;;;;;;;;;5048888;28;20048;-63
2021/06/15 09:21:39;;;;;;;4.82;3.40;;;;;;;;;;5043289;28;20095;-63
2021/06/15 09:24:07;;;;;;;4.88;3.35;;;;;;;;;;5031776;28;20041;-62
2021/06/15 09:27:09;;;;;;;5.55;3.47;;;;;;;;;;5050134;28;20033;-63
2021/06/15 09:29:34;;;;;;;;;;;;;;;;;;5052149;28;20107;-63
2021/06/15 09:32:00;;;;;;;5.93;3.47;;;;;;;;;;5039299;28;20304;-63
2021/06/15 09:34:25;;;;;;;6.40;4.25;;;;;;;;;;5047475;28;20261;-63
2021/06/15 09:36:52;;;;;;;6.47;4.07;;;;;;;;;;5030756;28;20402;-63
2021/06/15 09:39:17;;;;;;;5.55;3.83;;;;;;;;;;5030524;28;20072;-63
2021/06/15 09:41:44;;;;;;;5.63;3.83;;;;;;;;;;5035327;28;20504;-63
2021/06/15 09:44:16;;;;;;;5.88;4.03;;;;;;;;;;5054026;28;20037;-63
2021/06/15 09:46:49;;;;;;;6.78;3.75;;;;;;;;;;5050889;28;20043;-63
2021/06/15 09:49:37;;;;;;;7.05;4.00;;;;;;;;;;5052781;28;20112;-63
2021/06/15 09:52:18;;;;;;;6.07;3.70;;;;;;;;;;5051836;28;20049;-63
2021/06/15 09:54:55;;;;;;;6.15;3.83;;;;;;;;;;5053027;28;20474;-63
2021/06/15 09:57:34;;;;;;;6.63;3.80;;;;;;;;;;5052914;28;20075;-63
2021/06/15 10:00:12;;;;;;;5.85;3.90;;;;;;;;;;5053312;28;20045;-63
2021/06/15 10:02:51;;;;;;;5.55;4.13;;;;;;;;;;5051244;28;20045;-63
2021/06/15 10:05:36;;;;;;;6.82;4.43;;;;;;;;;;5051395;28;20115;-63
2021/06/15 10:08:10;;;;;;;6.07;4.13;;;;;;;;;;5052189;28;20091;-63
2021/06/15 10:10:41;;;;;;;6.07;4.28;;;;;;;;;;5052356;28;20037;-63
2021/06/15 10:13:07;;;;;;;6.03;4.20;;;;;;;;;;5044414;28;20037;-63
2021/06/15 10:15:33;;;;;;;6.05;4.10;;;;;;;;;;5033604;28;20053;-63
2021/06/15 10:17:59;;;;;;;7.70;4.57;;;;;;;;;;5053544;28;20524;-63
2021/06/15 10:20:26;;;;;;;5.40;3.97;;;;;;;;;;5051667;28;20340;-63
2021/06/15 10:22:51;;;;;;;5.82;4.18;;;;;;;;;;5051946;28;20048;-63
2021/06/15 10:25:18;;;;;;;6.20;4.28;;;;;;;;;;5050855;28;20049;-63
2021/06/15 10:27:43;;;;;;;6.53;4.57;;;;;;;;;;5053836;28;20036;-63
2021/06/15 10:30:09;;;;;;;6.70;4.35;;;;;;;;;;5032810;28;20442;-63
2021/06/15 10:32:35;;;;;;;7.03;4.13;;;;;;;;;;5035295;28;20057;-62
2021/06/15 10:35:07;;;;;;;6.35;4.18;;;;;;;;;;5034009;28;20033;-63
2021/06/15 10:37:36;;;;;;;;;;;;;;;;;;5053540;28;20125;-63
2021/06/15 10:40:10;;;;;;;6.78;4.55;;;;;;;;;;5052096;28;19921;-64
2021/06/15 10:42:37;;;;;;;6.95;4.57;;;;;;;;;;5054372;28;20096;-63
2021/06/15 10:45:11;;;;;;;6.13;4.15;;;;;;;;;;5033496;28;20045;-63
2021/06/15 10:47:37;;;;;;;5.53;4.03;;;;;;;;;;5051162;28;20505;-63
2021/06/15 10:50:04;;;;;;;5.38;3.85;;;;;;;;;;5051935;28;20029;-63
2021/06/15 10:53:00;;;;;;;6.20;4.03;;;;;;;;;;5023217;28;20080;-63
2021/06/15 10:55:49;;;;;;;5.15;3.67;;;;;;;;;;5068654;28;20075;-62
2021/06/15 10:58:34;;;;;;;5.05;3.70;;;;;;;;;;5052807;28;20033;-63
2021/06/15 11:01:18;;;;;;;4.95;3.35;;;;;;;;;;5051355;28;21132;-63
2021/06/15 11:03:45;;;;;;;4.43;3.17;;;;;;;;;;5016701;28;20048;-63
2021/06/15 11:06:11;;;;;;;5.05;3.40;;;;;;;;;;5049878;28;20084;-63
2021/06/15 11:08:36;;;;;;;4.90;3.05;;;;;;;;;;5033126;28;20111;-63
2021/06/15 11:11:16;;;;;;;5.10;3.22;;;;;;;;;;5052163;28;20482;-63
2021/06/15 11:13:43;;;;;;;3.83;2.80;;;;;;;;;;5049935;28;20122;-63
2021/06/15 11:16:28;;;;;;;4.72;3.35;;;;;;;;;;5034209;28;20489;-63
2021/06/15 11:19:11;;;;;;;5.82;3.20;;;;;;;;;;5066178;28;20485;-62
2021/06/15 11:22:09;;;;;;;6.40;3.30;;;;;;;;;;5051051;28;20057;-63
2021/06/15 11:24:39;;;;;;;4.78;3.30;;;;;;;;;;5067173;28;20056;-63
2021/06/15 11:27:16;;;;;;;6.40;3.40;;;;;;;;;;5051890;28;20048;-63
2021/06/15 11:29:42;;;;;;;3.60;2.80;;;;;;;;;;5051783;28;20113;-63
2021/06/15 11:32:17;;;;;;;5.18;2.90;;;;;;;;;;5065040;28;20038;-63
2021/06/15 11:34:43;;;;;;;3.85;2.97;;;;;;;;;;5049063;28;20038;-63
2021/06/15 11:37:20;;;;;;;4.53;3.00;;;;;;;;;;5033429;28;20040;-64
2021/06/15 11:39:46;;;;;;;5.38;2.65;;;;;;;;;;5051002;28;20116;-63
2021/06/15 11:42:21;;;;;;;4.32;2.90;;;;;;;;;;5003228;28;20041;-65
2021/06/15 11:45:05;;;;;;;3.78;2.70;;;;;;;;;;5050710;28;20045;-63
2021/06/15 11:47:45;;;;;;;4.43;2.63;;;;;;;;;;5049017;28;20033;-62
2021/06/15 11:50:25;;;;;;;3.88;2.50;;;;;;;;;;5051102;28;20037;-63
2021/06/15 11:53:00;;;;;;;4.15;2.40;;;;;;;;;;5066180;28;20041;-63
2021/06/15 11:55:31;;;;;;;4.35;2.53;;;;;;;;;;5050911;28;20025;-62
2021/06/15 11:58:13;;;;;;;3.60;2.13;;;;;;;;;;5016950;28;20038;-63
2021/06/15 12:00:40;;;;;;;4.90;2.30;;;;;;;;;;5034311;28;20031;-64
2021/06/15 12:03:19;;;;;;;4.13;2.40;;;;;;;;;;5018894;28;20029;-64
2021/06/15 12:05:51;;;;;;;4.13;2.30;;;;;;;;;;5049274;28;20047;-62
2021/06/15 12:08:16;;;;;;;;;;;;;;;;;;5047642;28;20490;-62
2021/06/15 12:10:43;;;;;;;3.95;1.83;;;;;;;;;;5041615;28;19917;-62
2021/06/15 12:13:10;;;;;;;4.85;2.15;;;;;;;;;;5050336;28;20053;-62
2021/06/15 12:15:37;;;;;;;4.28;2.30;;;;;;;;;;5031373;28;20082;-63
2021/06/15 12:18:10;;;;;;;2.63;2.05;;;;;;;;;;5034263;28;20500;-63
2021/06/15 12:20:38;;;;;;;4.68;1.95;;;;;;;;;;5050435;28;20040;-63
2021/06/15 12:23:22;;;;;;;4.50;2.10;;;;;;;;;;5048732;28;20030;-63
2021/06/15 12:25:48;;;;;;;2.75;1.77;;;;;;;;;;5050338;28;21227;-62
2021/06/15 12:28:16;;;;;;;3.83;1.80;;;;;;;;;;5021111;28;20033;-64
2021/06/15 12:30:44;;;;;;;3.22;1.67;;;;;;;;;;5030996;28;20041;-63
2021/06/15 12:33:13;;;;;;;2.80;1.60;;;;;;;;;;5048000;28;20175;-64
2021/06/15 12:35:38;;;;;;;3.92;2.20;;;;;;;;;;5015738;28;20125;-63
2021/06/15 12:38:11;;;;;;;3.03;1.80;;;;;;;;;;5017915;28;20413;-63
2021/06/15 12:40:38;;;;;;;3.05;1.67;;;;;;;;;;5032638;28;20508;-65
2021/06/15 12:43:03;;;;;;;3.03;1.70;;;;;;;;;;5032551;28;20092;-64
2021/06/15 12:45:36;;;;;;;2.17;1.80;;;;;;;;;;5033195;28;20100;-64
2021/06/15 12:48:16;;;;;;;1.98;1.60;;;;;;;;;;5032423;28;20048;-64
2021/06/15 12:50:42;;;;;;;2.60;1.55;;;;;;;;;;5036031;28;20109;-63
2021/06/15 12:53:07;;;;;;;2.00;1.48;;;;;;;;;;5016912;28;20127;-63
2021/06/15 12:55:40;;;;;;;3.22;1.50;;;;;;;;;;5014217;28;20036;-64
2021/06/15 12:58:07;;;;;;;3.15;1.80;;;;;;;;;;5050256;28;20052;-62
2021/06/15 13:00:32;;;;;;;2.83;1.60;;;;;;;;;;5050283;28;20033;-64
2021/06/15 13:03:06;;;;;;;2.35;1.67;;;;;;;;;;5049640;28;20061;-63
2021/06/15 13:05:31;;;;;;;1.98;1.48;;;;;;;;;;5050436;28;20490;-61
2021/06/15 13:07:58;;;;;;;2.53;1.70;;;;;;;;;;5019958;28;20025;-66
2021/06/15 13:10:23;;;;;;;1.85;1.50;;;;;;;;;;5065173;28;20603;-68
2021/06/15 13:12:51;;;;;;;2.45;1.50;;;;;;;;;;5032813;28;20037;-68
2021/06/15 13:15:17;;;;;;;2.95;1.50;;;;;;;;;;5041181;28;20041;-65
2021/06/15 13:17:57;;;;;;;3.65;1.55;;;;;;;;;;5033403;28;20128;-65
2021/06/15 13:20:23;;;;;;;2.28;1.50;;;;;;;;;;5053294;28;20117;-67
2021/06/15 13:22:48;;;;;;;2.40;1.25;;;;;;;;;;5035659;28;20116;-67
2021/06/15 13:25:19;;;;;;;2.97;1.58;;;;;;;;;;5053364;28;20404;-66
2021/06/15 13:27:46;;;;;;;4.05;1.65;;;;;;;;;;5052474;28;20037;-65
2021/06/15 13:30:13;;;;;;;4.03;1.80;;;;;;;;;;5034793;28;20532;-65
2021/06/15 13:32:40;;;;;;;1.85;1.30;;;;;;;;;;5054046;28;20037;-66
2021/06/15 13:35:07;;;;;;;2.92;1.33;;;;;;;;;;5052603;28;20033;-66
2021/06/15 13:37:39;;;;;;;1.73;1.20;;;;;;;;;;5053869;28;20545;-65
2021/06/15 13:40:06;;;;;;;3.35;1.45;;;;;;;;;;5068848;28;20025;-66
2021/06/15 13:42:32;;;;;;;2.20;1.40;;;;;;;;;;5035898;28;20033;-65
2021/06/15 13:45:08;;;;;;;2.72;1.52;;;;;;;;;;5037949;28;20490;-65
2021/06/15 13:47:34;;;;;;;2.85;1.50;;;;;;;;;;5048208;28;20502;-65
2021/06/15 13:50:00;;;;;;;2.00;1.40;;;;;;;;;;5054218;28;20065;-65
2021/06/15 13:52:25;;;;;;;2.67;1.42;;;;;;;;;;5052106;28;20799;-66
2021/06/15 13:54:51;;;;;;;2.85;1.58;;;;;;;;;;5035318;28;20038;-65
2021/06/15 13:57:16;;;;;;;3.35;1.42;;;;;;;;;;5052863;28;20037;-65
2021/06/15 13:59:42;;;;;;;3.00;1.52;;;;;;;;;;5051491;28;20041;-65
2021/06/15 14:02:07;;;;;;;2.17;1.30;;;;;;;;;;5050096;28;20025;-66
2021/06/15 14:04:33;;;;;;;2.03;1.27;;;;;;;;;;5050935;28;20176;-66
2021/06/15 14:06:58;;;;;;;3.58;1.80;;;;;;;;;;5050614;28;20368;-66
2021/06/15 14:09:24;;;;;;;2.42;1.58;;;;;;;;;;5051460;28;20022;-66
2021/06/15 14:11:49;;;;;;;1.88;1.40;;;;;;;;;;5052646;28;20033;-66
2021/06/15 14:14:15;;;;;;;2.00;1.55;;;;;;;;;;5052644;28;20029;-66
2021/06/15 14:16:40;;;;;;;2.85;1.63;;;;;;;;;;5032220;28;20129;-66
2021/06/15 14:19:06;;;;;;;3.33;1.70;;;;;;;;;;5052159;28;20037;-65
2021/06/15 14:21:37;;;;;;;3.30;2.05;;;;;;;;;;5032781;28;20036;-65
2021/06/15 14:24:11;;;;;;;2.03;1.42;;;;;;;;;;5039731;28;20088;-66
2021/06/15 14:26:37;;;;;;;1.70;1.35;;;;;;;;;;5053289;28;20044;-66
2021/06/15 14:29:03;;;;;;;1.85;1.30;;;;;;;;;;5032556;28;20552;-66
2021/06/15 14:31:29;;;;;;;2.40;1.38;;;;;;;;;;5052139;28;20163;-66
2021/06/15 14:33:54;;;;;;;2.08;1.50;;;;;;;;;;5053151;28;20071;-67
2021/06/15 14:36:20;;;;;;;2.17;1.40;;;;;;;;;;5052585;28;20033;-66
2021/06/15 14:38:47;;;;;;;1.73;1.40;;;;;;;;;;5043580;28;20031;-66
2021/06/15 14:41:13;;;;;;;2.83;1.63;;;;;;;;;;5049619;28;20079;-65
2021/06/15 14:43:38;;;;;;;3.20;1.90;;;;;;;;;;5050870;28;20443;-66
2021/06/15 14:46:03;;;;;;;2.30;1.58;;;;;;;;;;5032518;28;20049;-66
2021/06/15 14:48:31;;;;;;;2.28;1.48;;;;;;;;;;5050732;28;20072;-66
2021/06/15 14:50:56;;;;;;;2.50;1.63;;;;;;;;;;5067360;28;20038;-66
2021/06/15 14:53:22;;;;;;;2.28;1.60;;;;;;;;;;5051783;28;20135;-66
2021/06/15 14:55:47;;;;;;;2.08;1.70;;;;;;;;;;5050666;28;20025;-66
2021/06/15 14:58:13;;;;;;;2.22;1.55;;;;;;;;;;5051268;28;20503;-65
2021/06/15 15:00:38;;;;;;;2.28;1.70;;;;;;;;;;5052147;28;20038;-66